CheckWX is a tool to help pilots better visualize weather data.  It is not intended as a substitute for an official pre-flight weather briefing.

08:04:08 UTC

LFRG TAF
Deauville-Saint-Gatien Airport
Deauville, France
TAF LFRG 190500Z 1906/1915 VRB05KT 9999 BKN025 TEMPO 1906/1910 4000 RADZ BKN004 PROB40 TEMPO 1912/1915 4000 SHRA BKN012

Mar-19@
06:00 UTC

Mar-19 @ 06:00 UTC

Mar-19@
15:00 UTC

Mar-19 @ 15:00 UTC

TAF LFRG 190500Z 1906/1915 VRB05KT 9999 BKN025
Wind
  • Variable at 5 KTS
Cloud Levels
  • Broken at 2,500' AGL

Mar-19@
06:00 UTC

Mar-19 @ 06:00 UTC

Mar-19@
10:00 UTC

Mar-19 @ 10:00 UTC

TEMPO 1906/1910 4000 RADZ BKN004

Temporary

Temporary Changes expected for less than half the time period

Conditions
Rain, Drizzle
Cloud Levels
  • Broken at 400' AGL

Mar-19@
12:00 UTC

Mar-19 @ 12:00 UTC

Mar-19@
15:00 UTC

Mar-19 @ 15:00 UTC

PROB40 TEMPO 1912/1915 4000 SHRA BKN012

Temporary - 40% Likelihood

Temporary - 40% Likelihood during this time.

Conditions
Rain
Cloud Levels
  • Broken at 1,200' AGL